• Join FlightAware (Why Join?)
  • Login
  • US Flag 
02:18PM EDT


 

Airport Tracker/Info


-or-


 

Live Flight TrackerFlight Track Log ✈ BJS618 ✈ 13-Nov-2013 ✈ KSGR - KADS

Flight Track Log - Related Links

Times and Time Zones

All times are in EST time to prevent confusion due to time zone crossing. See the BJS618 flight status page for this flight to view local times or setup timezone preferences in your user account.

Time Position Orientation Groundspeed Altitude Reporting Facility
EST Latitude Longitude Course Direction KTS MPH feet Rate Location/Type
08:00PM 29.6633 -95.7136 303° West 210 242 2,000  Level Houston Center
08:01PM 29.7056 -95.7161 357° North 201 231 2,000 540 Level Houston Center
08:01PM 29.7225 -95.7164 359° North 198 228 2,600 2,160 Climbing Houston Center
08:02PM 29.7669 -95.7169 359° North 210 242 4,200 2,220 Climbing Houston Center
08:02PM 29.7917 -95.7156 North 257 296 4,900 3,360 Climbing Houston Center
08:03PM 29.8419 -95.7164 359° North 256 295 7,700 3,420 Climbing Houston Center
08:04PM 29.9203 -95.7111 North 283 326 11,100 3,720 Climbing Houston Center
08:05PM 30.0222 -95.7053 North 351 404 15,500 3,900 Climbing Houston Center
08:06PM 30.1253 -95.6578 22° Northeast 394 453 19,200 3,540 Climbing Houston Center
08:07PM 30.2311 -95.6047 23° Northeast 409 471 22,900 2,280 Climbing Houston Center
08:08PM 30.3453 -95.5475 23° Northeast 440 506 24,000 480 Climbing Houston Center
08:09PM 30.4858 -95.4794 23° Northeast 453 521 24,000  Level Houston Center
08:10PM 30.6050 -95.4878 357° North 429 494 24,000  Level Houston Center
08:11PM 30.7072 -95.5306 340° North 417 480 24,000  Level Houston Center
08:12PM 30.8156 -95.5811 338° Northwest 416 479 24,000  Level Houston Center
08:13PM 30.9478 -95.6417 339° North 422 486 24,000  Level Houston Center
08:14PM 31.0589 -95.6928 338° Northwest 425 489 24,000  Level Houston Center
08:15PM 31.1703 -95.7439 339° North 427 491 24,000  Level Houston Center
08:16PM 31.2819 -95.7947 339° North 428 493 24,000  Level Houston Center
08:17PM 31.3936 -95.8456 339° North 429 494 24,000  Level Houston Center
08:18PM 31.5050 -95.8986 338° Northwest 429 494 24,000  Level Houston Center
08:19PM 31.6164 -95.9500 339° North 430 495 24,000  Level Houston Center
08:20PM 31.6958 -95.9875 338° Northwest 422 486 24,000  Level Fort Worth Center
08:21PM 31.8133 -96.0467 337° Northwest 434 499 24,000 -540 Level Fort Worth Center
08:22PM 31.9206 -96.0942 339° North 429 494 23,000 -1,740 Descending Fort Worth Center
08:23PM 32.0211 -96.1417 338° Northwest 415 478 20,600 -2,580 Descending Fort Worth Center
08:24PM 32.1219 -96.1894 338° Northwest 393 452 17,900 -2,700 Descending Fort Worth Center
08:25PM 32.2183 -96.2372 337° Northwest 382 440 15,200 -2,640 Descending Fort Worth Center
08:26PM 32.2939 -96.2853 332° Northwest 352 405 12,700 -2,580 Descending Fort Worth Center
08:27PM 32.3842 -96.3383 334° Northwest 331 381 10,100 -1,860 Descending Fort Worth Center
08:28PM 32.4492 -96.3769 333° Northwest 304 350 9,000 -1,080 Descending Fort Worth Center
08:29PM 32.5247 -96.4228 333° Northwest 286 329 8,000 -1,260 Descending Fort Worth Center
08:30PM 32.5856 -96.4592 333° Northwest 286 329 6,500 -1,500 Descending Fort Worth Center
08:31PM 32.6611 -96.5053 333° Northwest 281 323 5,100 -780 Descending Fort Worth Center
08:32PM 32.7156 -96.5542 323° Northwest 275 316 5,000 -60 Descending Fort Worth Center
08:33PM 32.7786 -96.6178 320° Northwest 275 316 5,000 -300 Level Fort Worth Center
08:33PM 32.8167 -96.6500 325° Northwest 273 314 4,600 -780 Descending Dallas / Fort Worth TRACON
08:34PM 32.8667 -96.7000 320° Northwest 232 267 3,900 -720 Descending Dallas / Fort Worth TRACON
08:35PM 32.9167 -96.7500 320° Northwest 207 238 3,200 -540 Descending Dallas / Fort Worth TRACON
08:36PM 32.9500 -96.7833 320° Northwest 194 223 2,900 -480 Descending Dallas / Fort Worth TRACON
08:37PM 33.0000 -96.7833 360° North 169 194 2,300 -660 Descending Dallas / Fort Worth TRACON
08:38PM 33.0167 -96.8333 292° West 121 139 1,600 -720 Descending Dallas / Fort Worth TRACON
08:39PM 32.9833 -96.8333 180° South 110 127 900 -720 Descending Dallas / Fort Worth TRACON
08:42PM 32.9667 -96.8333 North  Level FlightAware Approximate